Weather at Philadelphia International Airport

Public forecast

Using degrees Fahrenheit for public forecast. Weather courtesy of forecast.io.

Current aviation weather report (METAR) for Philadelphia International Airport

Retrieved 2021/01/23 20:54 UTC (1 hour ago):

KPHL 232054Z 30016KT 10SM SCT055 01/M14 A3016 RMK AO2 PK WND 33033/2027 SLP213 T00061139 53006

Aviation forecast (TAF) for Philadelphia International Airport

Retrieved 2021/01/23 18:33 UTC (3 hours ago):

TAF KPHL 231729Z 2318/2424 32020G30KT P6SM SCT060 FM232200 31015G25KT P6SM FEW060 FM240100 31012KT P6SM SKC FM241800 29008KT P6SM BKN100